Time;durP1;ratioP1;P1;durP2;ratioP2;P2;SDS_P1;SDS_P2;PMS_P1;PMS_P2;Temp;Humidity;BMP_temperature;BMP_pressure;BME280_temperature;BME280_humidity;BME280_pressure;Samples;Min_cycle;Max_cycle;Signal;HPM_P1;HPM_P2
2021/11/27 00:02:20;;;;;;;0.00;0.00;;;;;;;5.89;60.56;99752.84;7367424;19;20015;-59
2021/11/27 00:04:46;;;;;;;0.10;0.10;;;;;;;5.86;60.15;99758.91;7363164;19;20407;-58
2021/11/27 00:07:11;;;;;;;0.10;0.10;;;;;;;5.85;60.45;99767.59;7362183;19;20014;-58
2021/11/27 00:09:37;;;;;;;0.00;0.00;;;;;;;5.85;60.10;99770.16;7364213;19;20474;-60
2021/11/27 00:12:03;;;;;;;0.00;0.00;;;;;;;5.84;60.20;99794.38;7362381;19;20042;-59
2021/11/27 00:14:30;;;;;;;0.00;0.00;;;;;;;5.83;60.35;99782.31;7363214;19;20010;-58
2021/11/27 00:16:56;;;;;;;0.05;0.05;;;;;;;5.82;60.13;99796.13;7356616;19;20397;-59
2021/11/27 00:19:21;;;;;;;0.00;0.00;;;;;;;5.77;59.88;99787.56;7357625;19;20014;-59
2021/11/27 00:21:47;;;;;;;0.10;0.10;;;;;;;5.82;60.41;99793.53;7360000;19;20006;-58
2021/11/27 00:24:12;;;;;;;0.00;0.00;;;;;;;5.80;59.63;99789.28;7363920;19;20038;-59
2021/11/27 00:26:38;;;;;;;0.00;0.00;;;;;;;5.78;59.73;99793.59;7361745;19;20035;-59
2021/11/27 00:29:04;;;;;;;0.00;0.00;;;;;;;5.70;59.47;99791.16;7357947;19;20034;-60
2021/11/27 00:31:30;;;;;;;0.10;0.10;;;;;;;5.72;60.20;99791.97;7353008;19;20011;-58
2021/11/27 00:33:57;;;;;;;0.00;0.00;;;;;;;5.75;59.49;99802.31;7362404;19;20018;-58
2021/11/27 00:36:23;;;;;;;0.00;0.00;;;;;;;5.73;59.86;99811.84;7358289;19;20498;-60
2021/11/27 00:38:51;;;;;;;0.00;0.00;;;;;;;5.72;59.49;99815.28;7360997;19;20090;-60
2021/11/27 00:41:17;;;;;;;;;;;;;;;5.73;60.52;99823.06;7363514;19;20029;-59
2021/11/27 00:43:44;;;;;;;0.10;0.10;;;;;;;5.69;58.61;99828.31;7360869;19;20017;-59
2021/11/27 00:46:11;;;;;;;0.10;0.10;;;;;;;5.69;58.90;99831.75;7361733;19;20014;-59
2021/11/27 00:48:37;;;;;;;0.10;0.10;;;;;;;5.69;59.25;99825.72;7360116;19;20030;-59
2021/11/27 00:51:09;;;;;;;0.00;0.00;;;;;;;5.68;58.05;99819.69;7362435;19;20470;-59
2021/11/27 00:53:35;;;;;;;0.00;0.00;;;;;;;5.66;58.02;99846.50;7363316;19;20025;-59
2021/11/27 00:56:01;;;;;;;0.08;0.08;;;;;;;5.66;58.35;99851.66;7362363;19;20668;-57
2021/11/27 00:58:26;;;;;;;0.10;0.10;;;;;;;5.65;58.20;99845.63;7361734;19;20470;-59
2021/11/27 01:01:00;;;;;;;0.10;0.10;;;;;;;5.67;58.26;99832.66;7365613;19;20018;-58
2021/11/27 01:03:29;;;;;;;0.10;0.10;;;;;;;5.66;58.26;99842.16;7357296;19;20006;-59
2021/11/27 01:05:57;;;;;;;0.00;0.00;;;;;;;5.67;58.28;99843.00;7360789;19;20118;-58
2021/11/27 01:08:23;;;;;;;0.00;0.00;;;;;;;5.65;57.37;99860.31;7361949;19;20017;-59
2021/11/27 01:11:07;;;;;;;0.00;0.00;;;;;;;5.67;57.92;99861.16;7361680;19;20033;-60
2021/11/27 01:13:33;;;;;;;0.08;0.08;;;;;;;5.65;57.60;99862.91;7360475;19;20025;-59
2021/11/27 01:16:04;;;;;;;0.10;0.10;;;;;;;5.65;57.44;99858.59;7361933;19;20014;-59
2021/11/27 01:18:30;;;;;;;0.00;0.00;;;;;;;5.64;57.31;99869.84;7357927;19;20050;-58
2021/11/27 01:21:02;;;;;;;0.00;0.00;;;;;;;5.65;56.82;99875.88;7359629;19;20014;-60
2021/11/27 01:23:27;;;;;;;0.10;0.10;;;;;;;5.64;57.40;99894.88;7361310;19;20015;-59
2021/11/27 01:25:54;;;;;;;0.00;0.00;;;;;;;5.63;56.61;99885.41;7359941;19;20030;-59
2021/11/27 01:28:21;;;;;;;0.03;0.03;;;;;;;5.64;56.61;99900.06;7358133;19;20075;-59
2021/11/27 01:30:50;;;;;;;0.10;0.10;;;;;;;5.65;56.90;99900.03;7362253;19;20474;-59
2021/11/27 01:33:16;;;;;;;0.00;0.00;;;;;;;5.65;56.97;99901.75;7361700;19;20013;-58
2021/11/27 01:35:41;;;;;;;0.00;0.00;;;;;;;5.64;56.35;99910.41;7358531;19;20010;-59
2021/11/27 01:38:09;;;;;;;0.08;0.08;;;;;;;5.65;56.36;99912.97;7363134;19;20002;-59
2021/11/27 01:40:35;;;;;;;0.00;0.00;;;;;;;5.61;56.17;99918.22;7358495;19;20010;-58
2021/11/27 01:43:01;;;;;;;0.08;0.08;;;;;;;5.65;56.70;99917.31;7360550;19;20018;-59
2021/11/27 01:45:27;;;;;;;0.10;0.10;;;;;;;5.66;56.25;99931.97;7363429;19;20006;-59
2021/11/27 01:48:06;;;;;;;0.00;0.00;;;;;;;5.66;56.17;99953.53;7359448;19;22292;-59
2021/11/27 01:50:37;;;;;;;0.00;0.00;;;;;;;5.66;55.93;99939.72;7363439;19;20387;-58
2021/11/27 01:53:03;;;;;;;0.10;0.10;;;;;;;5.63;56.22;99935.47;7364781;19;20078;-58
2021/11/27 01:55:30;;;;;;;0.00;0.00;;;;;;;5.26;56.56;99898.88;7364189;19;20050;-59
2021/11/27 01:57:55;;;;;;;0.00;0.00;;;;;;;5.60;56.74;99951.03;7359788;19;20010;-58
2021/11/27 02:00:24;;;;;;;0.00;0.00;;;;;;;5.59;56.70;99962.28;7363736;19;20050;-59
2021/11/27 02:02:51;;;;;;;0.00;0.00;;;;;;;5.55;57.34;99967.53;7356882;19;20011;-57
2021/11/27 02:05:18;;;;;;;0.10;0.10;;;;;;;5.54;57.05;99964.09;7361882;19;19999;-59
2021/11/27 02:07:43;;;;;;;0.00;0.00;;;;;;;5.52;57.48;99977.91;7363162;19;20078;-60
2021/11/27 02:10:12;;;;;;;0.00;0.00;;;;;;;5.51;57.18;99976.22;7362602;19;20433;-59
2021/11/27 02:12:38;;;;;;;0.10;0.10;;;;;;;5.39;57.09;99962.56;7360228;19;20926;-60
2021/11/27 02:15:05;;;;;;;0.05;0.05;;;;;;;5.43;57.30;99978.91;7358460;19;20027;-57
2021/11/27 02:17:31;;;;;;;0.05;0.05;;;;;;;5.41;57.15;99985.84;7358480;19;20010;-59
2021/11/27 02:19:56;;;;;;;0.10;0.10;;;;;;;5.41;57.56;99976.34;7358423;19;20034;-59
2021/11/27 02:22:22;;;;;;;0.00;0.00;;;;;;;5.39;57.44;99991.03;7362805;19;20564;-59
2021/11/27 02:24:48;;;;;;;0.03;0.03;;;;;;;5.35;57.53;99997.13;7357144;19;21367;-57
2021/11/27 02:27:14;;;;;;;0.10;0.10;;;;;;;5.33;57.89;99988.53;7365344;19;20082;-59
2021/11/27 02:29:39;;;;;;;0.00;0.00;;;;;;;5.28;57.64;99998.09;7363759;19;20106;-60
2021/11/27 02:32:06;;;;;;;0.00;0.00;;;;;;;5.26;57.48;99997.25;7362765;19;20031;-57
2021/11/27 02:34:32;;;;;;;0.10;0.10;;;;;;;5.24;57.92;100003.31;7360110;19;20018;-58
2021/11/27 02:37:02;;;;;;;0.00;0.00;;;;;;;5.19;58.24;99999.06;7360884;19;20015;-59
2021/11/27 02:39:28;;;;;;;0.05;0.05;;;;;;;5.19;58.08;100005.97;7353909;19;20006;-59
2021/11/27 02:41:54;;;;;;;0.00;0.00;;;;;;;5.16;58.45;100011.16;7359825;19;20154;-59
2021/11/27 02:44:22;;;;;;;0.10;0.10;;;;;;;5.12;58.28;100012.94;7357189;19;20030;-57
2021/11/27 02:46:47;;;;;;;0.08;0.08;;;;;;;5.13;58.67;100021.56;7361970;19;20010;-59
2021/11/27 02:49:13;;;;;;;0.00;0.00;;;;;;;5.11;58.49;100005.19;7357392;19;20865;-58
2021/11/27 02:51:38;;;;;;;0.00;0.00;;;;;;;5.08;58.52;100013.00;7357086;19;20042;-59
2021/11/27 02:54:04;;;;;;;0.10;0.10;;;;;;;4.99;58.47;99992.41;7361665;19;20013;-59
2021/11/27 02:56:30;;;;;;;0.10;0.10;;;;;;;5.00;58.62;100014.81;7362807;19;20014;-59
2021/11/27 02:58:55;;;;;;;0.05;0.05;;;;;;;5.08;59.01;100033.72;7356249;19;20013;-59
2021/11/27 03:01:22;;;;;;;0.10;0.10;;;;;;;5.10;59.00;100044.88;7366072;19;20613;-60
2021/11/27 03:03:48;;;;;;;0.10;0.10;;;;;;;4.98;58.99;100029.50;7366068;19;20014;-59
2021/11/27 03:06:14;;;;;;;0.00;0.00;;;;;;;5.07;59.42;100068.19;7360959;19;20019;-59
2021/11/27 03:08:40;;;;;;;0.00;0.00;;;;;;;5.09;59.57;100061.28;7364930;19;20679;-59
2021/11/27 03:11:06;;;;;;;0.00;0.00;;;;;;;5.08;59.55;100075.97;7361118;19;20011;-58
2021/11/27 03:13:38;;;;;;;0.00;0.00;;;;;;;5.08;59.78;100082.88;7363240;19;22007;-59
2021/11/27 03:16:04;;;;;;;0.00;0.00;;;;;;;5.06;59.77;100071.66;7361975;19;20798;-58
2021/11/27 03:18:29;;;;;;;0.05;0.05;;;;;;;5.04;59.71;100068.25;7355523;19;20165;-58
2021/11/27 03:20:56;;;;;;;0.00;0.00;;;;;;;5.00;59.73;100082.09;7361366;19;20015;-59
2021/11/27 03:23:22;;;;;;;0.00;0.00;;;;;;;5.02;59.95;100106.19;7363383;19;20022;-59
2021/11/27 03:25:48;;;;;;;0.08;0.08;;;;;;;5.01;60.24;100109.66;7362019;19;20052;-58
2021/11/27 03:28:14;;;;;;;0.08;0.08;;;;;;;4.98;60.14;100128.69;7362125;19;20034;-58
2021/11/27 03:30:40;;;;;;;0.00;0.00;;;;;;;4.97;59.93;100128.66;7361952;19;20002;-59
2021/11/27 03:33:06;;;;;;;0.00;0.00;;;;;;;4.93;60.20;100120.97;7359808;19;20662;-58
2021/11/27 03:35:33;;;;;;;0.10;0.10;;;;;;;4.91;59.90;100109.75;7360737;19;20021;-59
2021/11/27 03:37:59;;;;;;;0.10;0.10;;;;;;;4.79;60.03;100096.94;7363093;19;20014;-59
2021/11/27 03:40:25;;;;;;;0.00;0.00;;;;;;;4.85;60.33;100109.81;7358402;19;20010;-60
2021/11/27 03:42:51;;;;;;;0.00;0.00;;;;;;;4.81;59.88;100110.69;7362388;19;20010;-59
2021/11/27 03:45:19;;;;;;;0.00;0.00;;;;;;;4.86;60.11;100118.41;7359484;19;20473;-58
2021/11/27 03:47:55;;;;;;;0.00;0.00;;;;;;;4.86;60.24;100118.41;7361867;19;20010;-59
2021/11/27 03:50:21;;;;;;;0.10;0.10;;;;;;;4.84;59.95;100115.00;7361456;19;20027;-59
2021/11/27 03:52:47;;;;;;;0.00;0.00;;;;;;;4.80;60.38;100108.13;7365909;19;21548;-59
2021/11/27 03:55:13;;;;;;;0.00;0.00;;;;;;;4.86;60.16;100111.50;7368801;19;20097;-58
2021/11/27 03:57:39;;;;;;;0.00;0.00;;;;;;;4.87;60.58;100123.59;7365714;19;20039;-58
2021/11/27 04:00:07;;;;;;;0.00;0.00;;;;;;;4.89;60.24;100132.19;7370541;19;20014;-57
2021/11/27 04:02:33;;;;;;;0.00;0.00;;;;;;;4.89;60.44;100139.97;7367869;19;20516;-59
2021/11/27 04:04:59;;;;;;;0.00;0.00;;;;;;;4.91;60.33;100155.47;7368431;19;20015;-59
2021/11/27 04:07:24;;;;;;;0.00;0.00;;;;;;;4.90;60.39;100152.00;7363424;19;20030;-58
2021/11/27 04:09:49;;;;;;;0.00;0.00;;;;;;;4.91;60.47;100163.22;7367297;19;20041;-59
2021/11/27 04:12:15;;;;;;;0.00;0.00;;;;;;;4.91;60.16;100160.63;7364531;19;20039;-60
2021/11/27 04:14:40;;;;;;;0.00;0.00;;;;;;;4.90;60.61;100162.38;7368480;19;20017;-58
2021/11/27 04:17:06;;;;;;;0.00;0.00;;;;;;;4.67;60.23;100123.78;7367800;19;20018;-58
2021/11/27 04:19:31;;;;;;;0.00;0.00;;;;;;;4.89;60.47;100173.59;7364405;19;20033;-59
2021/11/27 04:21:56;;;;;;;0.00;0.00;;;;;;;4.88;60.37;100171.88;7364107;19;20514;-59
2021/11/27 04:24:22;;;;;;;0.00;0.00;;;;;;;4.84;60.61;100170.19;7370778;19;20006;-59
2021/11/27 04:26:47;;;;;;;0.00;0.00;;;;;;;4.87;60.39;100184.84;7370024;19;22022;-58
2021/11/27 04:29:13;;;;;;;0.00;0.00;;;;;;;4.86;60.43;100188.28;7369669;19;20023;-59
2021/11/27 04:31:38;;;;;;;0.00;0.00;;;;;;;4.80;60.54;100178.84;7362427;19;20058;-58
2021/11/27 04:34:05;;;;;;;0.00;0.00;;;;;;;4.83;60.71;100177.97;7369858;19;20007;-59
2021/11/27 04:36:31;;;;;;;0.00;0.00;;;;;;;4.81;60.28;100190.88;7367794;19;20737;-58
2021/11/27 04:38:56;;;;;;;0.00;0.00;;;;;;;4.80;60.57;100189.19;7371014;19;20006;-60
2021/11/27 04:41:22;;;;;;;0.10;0.10;;;;;;;4.77;60.75;100193.53;7369010;19;20019;-59
2021/11/27 04:43:47;;;;;;;0.00;0.00;;;;;;;4.76;60.60;100197.81;7346736;19;20186;-59
2021/11/27 04:46:13;;;;;;;0.00;0.00;;;;;;;4.76;60.58;100203.00;7368470;19;20010;-60
2021/11/27 04:48:39;;;;;;;0.10;0.10;;;;;;;4.74;60.57;100222.84;7367805;19;20010;-60
2021/11/27 04:51:04;;;;;;;0.00;0.00;;;;;;;4.72;60.59;100195.28;7369120;19;20010;-57
2021/11/27 04:53:30;;;;;;;0.10;0.10;;;;;;;4.73;60.79;100220.28;7370636;19;20094;-59
2021/11/27 04:55:56;;;;;;;0.10;0.10;;;;;;;4.71;61.02;100230.63;7368747;19;20011;-59
2021/11/27 04:58:22;;;;;;;0.00;0.00;;;;;;;4.69;61.06;100228.06;7368113;19;20124;-57
2021/11/27 05:00:51;;;;;;;0.00;0.00;;;;;;;4.69;61.16;100227.19;7371138;19;20082;-58
2021/11/27 05:03:17;;;;;;;0.08;0.08;;;;;;;4.51;61.20;100211.78;7365628;19;20017;-60
2021/11/27 05:05:42;;;;;;;0.00;0.00;;;;;;;4.66;61.38;100238.44;7368315;19;20010;-58
2021/11/27 05:08:08;;;;;;;0.00;0.00;;;;;;;4.64;61.41;100234.13;7369492;19;20100;-59
2021/11/27 05:10:34;;;;;;;0.10;0.10;;;;;;;4.56;61.40;100231.59;7365205;19;20018;-57
2021/11/27 05:12:59;;;;;;;0.10;0.10;;;;;;;4.62;61.68;100233.28;7366401;19;20010;-58
2021/11/27 05:15:25;;;;;;;0.00;0.00;;;;;;;4.59;61.91;100231.56;7368255;19;20010;-59
2021/11/27 05:17:50;;;;;;;0.00;0.00;;;;;;;4.49;62.26;100216.97;7365277;19;20036;-59
2021/11/27 05:20:16;;;;;;;0.10;0.10;;;;;;;4.54;62.33;100243.66;7370238;19;20017;-59
2021/11/27 05:22:42;;;;;;;0.10;0.10;;;;;;;4.52;62.32;100229.03;7362650;19;20696;-59
2021/11/27 05:25:08;;;;;;;0.10;0.10;;;;;;;4.50;62.67;100231.59;7367126;19;20019;-58
2021/11/27 05:27:35;;;;;;;0.00;0.00;;;;;;;4.46;62.71;100244.56;7368160;19;20006;-57
2021/11/27 05:30:01;;;;;;;0.00;0.00;;;;;;;4.48;62.63;100242.84;7368678;19;20037;-57
2021/11/27 05:34:59;;;;;;;0.00;0.00;;;;;;;4.44;63.09;100252.34;7363575;19;20372;-59
2021/11/27 05:37:24;;;;;;;0.10;0.10;;;;;;;4.45;62.75;100243.69;7369041;19;20134;-58
2021/11/27 05:39:50;;;;;;;0.00;0.00;;;;;;;4.43;62.75;100266.97;7365870;19;20731;-59
2021/11/27 05:42:16;;;;;;;0.00;0.00;;;;;;;4.46;62.77;100254.91;7366539;19;21428;-59
2021/11/27 05:44:43;;;;;;;0.00;0.00;;;;;;;4.45;62.89;100264.38;7368221;19;20868;-59
2021/11/27 05:47:08;;;;;;;0.00;0.00;;;;;;;4.45;62.87;100279.91;7366747;19;20029;-58
2021/11/27 05:49:34;;;;;;;0.10;0.10;;;;;;;4.41;63.12;100273.91;7365924;19;20010;-59
2021/11/27 05:51:59;;;;;;;0.00;0.00;;;;;;;4.45;63.16;100286.78;7368294;19;20031;-57
2021/11/27 05:54:25;;;;;;;0.00;0.00;;;;;;;4.45;62.72;100284.22;7362328;19;19999;-59
2021/11/27 05:56:50;;;;;;;0.10;0.10;;;;;;;4.40;63.12;100297.16;7368256;19;20035;-57
2021/11/27 05:59:16;;;;;;;0.00;0.00;;;;;;;4.45;62.90;100299.72;7368538;19;20422;-59
2021/11/27 06:01:41;;;;;;;0.10;0.10;;;;;;;4.43;63.09;100303.19;7365700;19;20518;-59
2021/11/27 06:04:07;;;;;;;0.10;0.10;;;;;;;4.43;62.84;100300.59;7367970;19;20002;-59
2021/11/27 06:06:33;;;;;;;0.00;0.00;;;;;;;4.41;63.03;100320.44;7366807;19;20066;-59
2021/11/27 06:09:00;;;;;;;0.10;0.10;;;;;;;4.39;62.67;100311.81;7367268;19;20044;-60
2021/11/27 06:11:26;;;;;;;0.00;0.00;;;;;;;4.38;62.63;100310.09;7364360;19;20091;-59
2021/11/27 06:13:52;;;;;;;0.00;0.00;;;;;;;4.37;63.16;100333.38;7362613;19;20017;-57
2021/11/27 06:16:17;;;;;;;0.00;0.00;;;;;;;4.34;62.69;100336.81;7362700;19;20015;-59
2021/11/27 06:18:43;;;;;;;0.00;0.00;;;;;;;4.32;62.74;100335.97;7364697;19;20018;-60
2021/11/27 06:21:08;;;;;;;0.00;0.00;;;;;;;4.30;63.11;100327.34;7364699;19;20485;-58
2021/11/27 06:23:34;;;;;;;0.10;0.10;;;;;;;4.30;62.84;100342.84;7366085;19;20406;-58
2021/11/27 06:26:00;;;;;;;0.03;0.03;;;;;;;4.28;63.22;100348.91;7364189;19;20101;-59
2021/11/27 06:28:26;;;;;;;0.00;0.00;;;;;;;4.28;63.34;100359.25;7368198;19;20106;-57
2021/11/27 06:30:51;;;;;;;0.10;0.10;;;;;;;4.23;63.50;100343.75;7366768;19;20022;-59
2021/11/27 06:33:17;;;;;;;0.10;0.10;;;;;;;4.26;63.12;100336.00;7365932;19;20462;-59
2021/11/27 06:35:42;;;;;;;0.00;0.00;;;;;;;4.24;63.83;100335.13;7366321;19;20021;-59
2021/11/27 06:38:08;;;;;;;0.00;0.00;;;;;;;4.19;63.33;100331.69;7362662;19;20015;-57
2021/11/27 06:40:34;;;;;;;0.00;0.00;;;;;;;4.14;63.58;100325.66;7368504;19;20526;-58
2021/11/27 06:43:01;;;;;;;0.00;0.00;;;;;;;4.20;63.56;100333.41;7367267;19;20014;-59
2021/11/27 06:45:31;;;;;;;0.00;0.00;;;;;;;4.20;63.76;100340.28;7364118;19;20717;-57
2021/11/27 06:47:57;;;;;;;0.00;0.00;;;;;;;4.17;63.40;100346.34;7363168;19;20715;-60
2021/11/27 06:50:23;;;;;;;0.00;0.00;;;;;;;4.17;63.93;100346.34;7364888;19;20013;-59
2021/11/27 06:52:48;;;;;;;0.10;0.10;;;;;;;4.15;63.55;100358.41;7362727;19;20014;-60
2021/11/27 06:55:14;;;;;;;0.00;0.00;;;;;;;4.13;63.93;100370.47;7366858;19;20348;-59
2021/11/27 06:57:39;;;;;;;0.10;0.10;;;;;;;4.01;63.96;100367.91;7366261;19;21360;-58
2021/11/27 07:00:07;;;;;;;0.00;0.00;;;;;;;4.10;64.12;100393.72;7367116;19;20013;-58
2021/11/27 07:02:32;;;;;;;0.00;0.00;;;;;;;4.08;64.07;100413.53;7366068;19;20487;-59
2021/11/27 07:04:57;;;;;;;0.10;0.10;;;;;;;4.07;63.86;100412.69;7364090;19;20021;-59
2021/11/27 07:07:23;;;;;;;0.00;0.00;;;;;;;4.05;63.99;100431.63;7365424;19;20017;-59
2021/11/27 07:09:48;;;;;;;0.10;0.10;;;;;;;4.05;63.60;100429.03;7362743;19;20013;-59
2021/11/27 07:12:14;;;;;;;0.10;0.10;;;;;;;4.05;63.23;100405.78;7364939;19;20018;-59
2021/11/27 07:14:39;;;;;;;0.00;0.00;;;;;;;4.01;63.43;100432.50;7363875;19;20034;-59
2021/11/27 07:17:05;;;;;;;0.00;0.00;;;;;;;4.01;63.84;100443.69;7360595;19;20406;-58
2021/11/27 07:19:33;;;;;;;0.10;0.10;;;;;;;4.01;63.42;100453.19;7362949;19;20014;-59
2021/11/27 07:21:59;;;;;;;0.00;0.00;;;;;;;4.00;63.14;100472.97;7363876;19;20018;-59
2021/11/27 07:24:25;;;;;;;0.10;0.10;;;;;;;3.97;63.16;100466.94;7344951;19;20014;-59
2021/11/27 07:26:50;;;;;;;0.00;0.00;;;;;;;3.94;63.15;100472.97;7371064;19;20539;-59
2021/11/27 07:29:16;;;;;;;0.10;0.10;;;;;;;3.97;62.91;100483.31;7366714;19;20731;-59
2021/11/27 07:31:42;;;;;;;0.00;0.00;;;;;;;3.97;62.81;100482.44;7371444;19;20036;-58
2021/11/27 07:34:07;;;;;;;0.00;0.00;;;;;;;3.90;63.08;100486.72;7370035;19;20014;-59
2021/11/27 07:36:32;;;;;;;0.00;0.00;;;;;;;3.94;62.77;100492.75;7368978;19;20015;-59
2021/11/27 07:38:58;;;;;;;0.00;0.00;;;;;;;3.94;62.82;100497.94;7369711;19;20006;-59
2021/11/27 07:41:23;;;;;;;0.05;0.05;;;;;;;3.90;62.90;100487.63;7372323;19;20029;-59
2021/11/27 07:43:49;;;;;;;0.10;0.10;;;;;;;3.92;62.63;100489.34;7368176;19;20880;-56
2021/11/27 07:46:16;;;;;;;0.10;0.10;;;;;;;3.92;62.74;100504.84;7370760;19;20086;-58
2021/11/27 07:48:42;;;;;;;0.00;0.00;;;;;;;3.90;62.78;100508.28;7369535;19;20034;-58
2021/11/27 07:51:07;;;;;;;0.10;0.10;;;;;;;3.83;62.38;100492.75;7370822;19;20011;-59
2021/11/27 07:53:33;;;;;;;0.10;0.10;;;;;;;3.88;62.62;100503.97;7370492;19;20003;-59
2021/11/27 07:55:58;;;;;;;0.00;0.00;;;;;;;3.87;62.73;100522.91;7371678;19;20028;-59
2021/11/27 07:58:24;;;;;;;0.00;0.00;;;;;;;3.82;62.56;100520.31;7368147;19;20735;-59
2021/11/27 08:00:49;;;;;;;0.03;0.03;;;;;;;3.83;62.84;100527.19;7368800;19;20010;-57
2021/11/27 08:03:15;;;;;;;0.10;0.10;;;;;;;3.77;62.76;100524.59;7369998;19;20037;-58
2021/11/27 08:05:40;;;;;;;0.10;0.10;;;;;;;3.80;62.90;100541.81;7368247;19;20027;-59
2021/11/27 08:08:06;;;;;;;0.10;0.10;;;;;;;3.78;63.20;100533.22;7368976;19;20554;-59
2021/11/27 08:10:33;;;;;;;0.00;0.00;;;;;;;3.76;63.36;100520.31;7368793;19;20023;-58
2021/11/27 08:12:59;;;;;;;0.00;0.00;;;;;;;3.76;62.87;100538.38;7370682;19;20114;-58
2021/11/27 08:15:24;;;;;;;0.00;0.00;;;;;;;3.75;62.98;100549.56;7371417;19;20086;-59
2021/11/27 08:17:50;;;;;;;0.00;0.00;;;;;;;3.75;63.04;100552.16;7362980;19;20007;-58
2021/11/27 08:20:15;;;;;;;0.10;0.10;;;;;;;3.67;62.95;100540.94;7370004;19;20473;-59
2021/11/27 08:22:41;;;;;;;0.00;0.00;;;;;;;3.74;63.38;100565.91;7369637;19;20389;-59
2021/11/27 08:25:07;;;;;;;0.00;0.00;;;;;;;3.72;63.22;100565.06;7366604;19;20045;-59
2021/11/27 08:27:34;;;;;;;0.00;0.00;;;;;;;3.73;63.46;100565.91;7371957;19;20014;-59
2021/11/27 08:30:08;;;;;;;0.00;0.00;;;;;;;3.74;63.25;100565.91;7358227;19;20022;-58
2021/11/27 08:32:34;;;;;;;0.10;0.10;;;;;;;3.74;63.15;100567.63;7369531;19;20752;-59
2021/11/27 08:35:00;;;;;;;0.10;0.10;;;;;;;3.75;63.33;100559.91;7370072;19;20017;-59
2021/11/27 08:37:25;;;;;;;0.00;0.00;;;;;;;3.75;63.37;100575.41;7366159;19;20010;-59
2021/11/27 08:39:51;;;;;;;0.00;0.00;;;;;;;3.74;63.56;100573.66;7368150;19;20466;-59
2021/11/27 08:42:21;;;;;;;0.00;0.00;;;;;;;3.77;63.03;100584.00;7368713;19;20015;-58
2021/11/27 08:44:47;;;;;;;0.00;0.00;;;;;;;3.79;63.51;100582.28;7366628;19;20039;-59
2021/11/27 08:47:13;;;;;;;0.00;0.00;;;;;;;3.80;63.13;100584.03;7367571;19;20011;-59
2021/11/27 08:49:38;;;;;;;0.00;0.00;;;;;;;3.81;63.19;100583.16;7364749;19;20010;-58
2021/11/27 08:52:04;;;;;;;0.10;0.10;;;;;;;3.82;63.66;100584.88;7366152;19;20010;-57
2021/11/27 08:54:30;;;;;;;0.00;0.00;;;;;;;3.78;63.48;100577.97;7366308;19;20014;-59
2021/11/27 08:56:56;;;;;;;0.05;0.05;;;;;;;3.84;63.52;100590.03;7368856;19;20010;-59
2021/11/27 08:59:23;;;;;;;0.10;0.10;;;;;;;3.89;63.40;100598.66;7364456;19;20660;-59
2021/11/27 09:01:50;;;;;;;0.00;0.00;;;;;;;3.90;63.53;100596.13;7367869;19;20050;-58
2021/11/27 09:04:15;;;;;;;0.05;0.05;;;;;;;3.92;63.41;100603.00;7365463;19;20010;-59
2021/11/27 09:06:40;;;;;;;0.10;0.10;;;;;;;3.93;63.47;100590.06;7366161;19;20011;-57
2021/11/27 09:09:06;;;;;;;0.00;0.00;;;;;;;3.89;63.57;100594.38;7365988;19;20551;-59
2021/11/27 09:11:32;;;;;;;0.05;0.05;;;;;;;3.96;63.53;100603.00;7369159;19;20014;-59
2021/11/27 09:13:59;;;;;;;0.00;0.00;;;;;;;4.02;63.92;100604.75;7365761;19;20014;-59
2021/11/27 09:16:25;;;;;;;0.10;0.10;;;;;;;4.12;63.77;100599.59;7369286;19;20128;-58
2021/11/27 09:18:50;;;;;;;0.00;0.00;;;;;;;4.30;63.64;100610.81;7360205;19;20006;-60
2021/11/27 09:21:16;;;;;;;0.00;0.00;;;;;;;4.52;63.46;100627.22;7369428;19;20165;-59
2021/11/27 09:23:42;;;;;;;0.00;0.00;;;;;;;4.69;63.54;100612.56;7361304;19;20847;-58
2021/11/27 09:26:07;;;;;;;0.08;0.08;;;;;;;4.94;62.97;100631.53;7365361;19;20103;-59
2021/11/27 09:28:34;;;;;;;0.05;0.05;;;;;;;5.05;63.06;100622.03;7362107;19;20010;-59
2021/11/27 09:31:00;;;;;;;0.10;0.10;;;;;;;5.34;62.97;100637.50;7371345;19;21194;-60
2021/11/27 09:33:26;;;;;;;0.00;0.00;;;;;;;5.31;61.86;100609.03;7366532;19;20022;-59
2021/11/27 09:35:59;;;;;;;0.10;0.10;;;;;;;5.64;61.56;100635.69;7369668;19;20512;-59
2021/11/27 09:38:25;;;;;;;0.00;0.00;;;;;;;5.78;61.13;100623.56;7367588;19;20014;-59
2021/11/27 09:41:08;;;;;;;0.00;0.00;;;;;;;5.98;61.31;100642.50;7367687;19;20028;-59
2021/11/27 09:43:35;;;;;;;0.10;0.10;;;;;;;6.13;61.05;100645.84;7365887;19;20006;-59
2021/11/27 09:46:01;;;;;;;0.08;0.08;;;;;;;6.36;61.05;100658.72;7367928;19;20014;-59
2021/11/27 09:48:26;;;;;;;0.10;0.10;;;;;;;6.62;60.26;100682.75;7362480;19;20613;-59
2021/11/27 09:50:52;;;;;;;0.00;0.00;;;;;;;6.82;59.40;100695.56;7361535;19;20033;-59
2021/11/27 09:53:21;;;;;;;0.00;0.00;;;;;;;7.01;58.85;100702.34;7359864;19;20058;-59
2021/11/27 09:55:47;;;;;;;0.08;0.08;;;;;;;7.17;59.20;100702.22;7356389;19;20035;-60
2021/11/27 09:58:13;;;;;;;0.00;0.00;;;;;;;7.39;58.93;100698.53;7356697;19;20856;-58
2021/11/27 10:00:39;;;;;;;0.00;0.00;;;;;;;7.60;58.29;100713.03;7368892;19;20034;-59
2021/11/27 10:03:08;;;;;;;0.00;0.00;;;;;;;7.84;58.29;100708.47;7361594;19;20006;-57
2021/11/27 10:05:34;;;;;;;0.00;0.00;;;;;;;8.00;57.83;100718.66;7362109;19;20010;-58
2021/11/27 10:07:59;;;;;;;0.10;0.10;;;;;;;8.19;57.50;100715.84;7358709;19;20017;-59
2021/11/27 10:10:25;;;;;;;0.00;0.00;;;;;;;8.36;57.06;100726.91;7362785;19;20011;-58
2021/11/27 10:12:50;;;;;;;0.00;0.00;;;;;;;8.53;56.57;100735.38;7343100;19;21376;-59
2021/11/27 10:15:16;;;;;;;0.10;0.10;;;;;;;8.78;56.97;100727.22;7357188;19;20031;-60
2021/11/27 10:17:41;;;;;;;0.00;0.00;;;;;;;8.97;55.88;100736.47;7351075;19;20011;-60
2021/11/27 10:20:08;;;;;;;0.10;0.10;;;;;;;9.14;55.99;100744.03;7355590;19;20485;-59
2021/11/27 10:22:37;;;;;;;0.03;0.03;;;;;;;9.40;56.36;100746.19;7359020;19;20026;-59
2021/11/27 10:25:23;;;;;;;0.00;0.00;;;;;;;9.59;56.88;100749.34;7362321;19;20094;-60
2021/11/27 10:27:50;;;;;;;0.00;0.00;;;;;;;9.66;54.70;100745.72;7362595;19;20041;-58
2021/11/27 10:30:15;;;;;;;0.00;0.00;;;;;;;9.82;53.91;100746.31;7357496;19;20031;-58
2021/11/27 10:32:43;;;;;;;0.10;0.10;;;;;;;10.04;53.48;100759.81;7363467;19;20014;-60
2021/11/27 10:35:16;;;;;;;0.00;0.00;;;;;;;10.19;53.03;100759.50;7362860;19;20086;-59
2021/11/27 10:37:47;;;;;;;0.10;0.10;;;;;;;10.35;53.11;100763.56;7363508;19;20006;-57
2021/11/27 10:40:18;;;;;;;0.00;0.00;;;;;;;10.55;53.85;100752.69;7363028;19;20016;-58
2021/11/27 10:42:53;;;;;;;0.00;0.00;;;;;;;10.76;54.52;100760.94;7364385;19;20466;-59
2021/11/27 10:45:24;;;;;;;0.00;0.00;;;;;;;10.89;52.13;100757.13;7356151;19;21113;-59
2021/11/27 10:47:52;;;;;;;0.00;0.00;;;;;;;11.02;52.11;100760.34;7360224;19;20010;-59
2021/11/27 10:50:20;;;;;;;0.05;0.05;;;;;;;11.05;50.99;100760.25;7356891;19;20026;-60
2021/11/27 10:52:47;;;;;;;0.00;0.00;;;;;;;10.89;50.31;100725.78;7362702;19;20035;-59
2021/11/27 10:55:16;;;;;;;0.00;0.00;;;;;;;11.00;50.46;100760.38;7363263;19;20018;-60
2021/11/27 10:57:43;;;;;;;0.00;0.00;;;;;;;10.91;51.32;100735.31;7361017;19;20056;-60
2021/11/27 11:00:25;;;;;;;0.00;0.00;;;;;;;10.85;50.48;100766.81;7365835;19;20042;-60
2021/11/27 11:02:51;;;;;;;0.00;0.00;;;;;;;10.85;49.99;100771.19;7358641;19;20015;-60
2021/11/27 11:05:17;;;;;;;0.00;0.00;;;;;;;10.88;50.85;100777.19;7362949;19;20022;-59
2021/11/27 11:07:53;;;;;;;0.00;0.00;;;;;;;11.01;52.04;100775.16;7361055;19;20034;-59
2021/11/27 11:10:21;;;;;;;0.00;0.00;;;;;;;11.06;50.06;100778.53;7358949;19;20014;-58
2021/11/27 11:12:55;;;;;;;0.00;0.00;;;;;;;11.15;50.12;100780.94;7357134;19;20768;-58
2021/11/27 11:15:27;;;;;;;0.00;0.00;;;;;;;11.35;50.39;100787.41;7358510;19;20085;-60
2021/11/27 11:18:09;;;;;;;0.00;0.00;;;;;;;11.41;49.91;100766.34;7359942;19;20021;-58
2021/11/27 11:20:35;;;;;;;0.00;0.00;;;;;;;11.73;50.04;100782.97;7358427;19;20022;-58
2021/11/27 11:23:11;;;;;;;0.00;0.00;;;;;;;12.02;51.37;100795.31;7357660;19;20129;-58
2021/11/27 11:25:53;;;;;;;0.00;0.00;;;;;;;12.18;50.65;100813.19;7362251;19;20019;-60
2021/11/27 11:28:20;;;;;;;0.00;0.00;;;;;;;12.14;48.11;100801.06;7361390;19;20552;-60
2021/11/27 11:30:48;;;;;;;0.10;0.10;;;;;;;12.24;48.30;100806.06;7359265;19;20045;-58
2021/11/27 11:33:16;;;;;;;0.10;0.10;;;;;;;12.35;47.96;100806.59;7361026;19;20014;-58
2021/11/27 11:35:43;;;;;;;0.00;0.00;;;;;;;12.47;47.80;100808.91;7361671;19;20022;-59